KSMF/SMF METAR and TAF weather

Enter ICAO airport designator
Station Type Date Time Source
KSMF METAR 2020/04/07 05:53 UTC NOAA

KSMF 070553Z 00000KT 10SM SCT110 BKN160 08/07 A3002 RMK AO2 SLP164 60000 T00830067 10122 20078 51021


Station Type Date Time Source
KSMF Decoded METAR 2020/04/07 05:53 UTC NOAA

SACRAMENTO INTERNATIONAL AIRPORT, CA, United States (KSMF) 38-42N 121-36W 6M
Apr 07, 2020 - 01:53 AM EDT / 2020.04.07 0553 UTC
Wind: Calm:0
Visibility: 10 mile(s):0
Sky conditions: mostly cloudy
Temperature: 46.9 F (8.3 C)
Dew Point: 44.1 F (6.7 C)
Relative Humidity: 89%
Pressure (altimeter): 30.02 in. Hg (1016 hPa)
Pressure tendency: 0.06 inches (2.1 hPa) higher than three hours ago
ob: KSMF 070553Z 00000KT 10SM SCT110 BKN160 08/07 A3002 RMK AO2 SLP164 60000 T00830067 10122 20078 51021
cycle: 6

Station Type Date Time Source
KSMF TAF 2020/04/07 06:22 UTC NOAA

TAF KSMF 070520Z 0706/0806 VRB04KT P6SM SCT060 BKN120
FM070800 15005KT P6SM BKN060
TEMPO 0708/0711 P6SM -SHRA OVC050
FM071900 VRB04KT P6SM SCT050 SCT100

Example: see airport list